sensor_id;sensor_type;location;lat;lon;timestamp;P1;durP1;ratioP1;P2;durP2;ratioP2
10295;SDS011;5193;51.032;6.356;2023-03-01T00:01:05;11.17;;;6.00;;
10295;SDS011;5193;51.032;6.356;2023-03-01T00:03:32;8.97;;;6.03;;
10295;SDS011;5193;51.032;6.356;2023-03-01T00:05:59;9.87;;;6.30;;
10295;SDS011;5193;51.032;6.356;2023-03-01T00:08:25;11.63;;;6.30;;
10295;SDS011;5193;51.032;6.356;2023-03-01T00:13:33;20.33;;;7.10;;
10295;SDS011;5193;51.032;6.356;2023-03-01T00:16:01;10.17;;;7.00;;
10295;SDS011;5193;51.032;6.356;2023-03-01T00:18:28;9.63;;;6.50;;
10295;SDS011;5193;51.032;6.356;2023-03-01T00:20:54;11.00;;;6.97;;
10295;SDS011;5193;51.032;6.356;2023-03-01T00:23:21;13.30;;;6.80;;
10295;SDS011;5193;51.032;6.356;2023-03-01T00:25:47;10.90;;;6.70;;
10295;SDS011;5193;51.032;6.356;2023-03-01T00:28:13;12.80;;;6.67;;
10295;SDS011;5193;51.032;6.356;2023-03-01T00:30:38;11.13;;;6.80;;
10295;SDS011;5193;51.032;6.356;2023-03-01T00:33:04;14.37;;;6.83;;
10295;SDS011;5193;51.032;6.356;2023-03-01T00:35:29;11.47;;;6.60;;
10295;SDS011;5193;51.032;6.356;2023-03-01T00:37:58;11.93;;;7.13;;
10295;SDS011;5193;51.032;6.356;2023-03-01T00:40:24;9.87;;;6.80;;
10295;SDS011;5193;51.032;6.356;2023-03-01T00:42:50;9.87;;;7.20;;
10295;SDS011;5193;51.032;6.356;2023-03-01T00:45:16;13.60;;;8.03;;
10295;SDS011;5193;51.032;6.356;2023-03-01T00:47:42;14.00;;;7.60;;
10295;SDS011;5193;51.032;6.356;2023-03-01T00:50:08;11.23;;;7.20;;
10295;SDS011;5193;51.032;6.356;2023-03-01T00:52:35;8.77;;;6.77;;
10295;SDS011;5193;51.032;6.356;2023-03-01T00:55:00;11.73;;;7.77;;
10295;SDS011;5193;51.032;6.356;2023-03-01T00:57:26;13.87;;;7.63;;
10295;SDS011;5193;51.032;6.356;2023-03-01T00:59:52;11.87;;;7.27;;
10295;SDS011;5193;51.032;6.356;2023-03-01T01:02:20;11.20;;;7.40;;
10295;SDS011;5193;51.032;6.356;2023-03-01T01:04:46;11.67;;;7.83;;
10295;SDS011;5193;51.032;6.356;2023-03-01T01:07:12;12.53;;;8.07;;
10295;SDS011;5193;51.032;6.356;2023-03-01T01:09:38;14.97;;;7.83;;
10295;SDS011;5193;51.032;6.356;2023-03-01T01:12:04;13.47;;;7.70;;
10295;SDS011;5193;51.032;6.356;2023-03-01T01:14:30;13.60;;;7.97;;
10295;SDS011;5193;51.032;6.356;2023-03-01T01:16:56;15.50;;;8.67;;
10295;SDS011;5193;51.032;6.356;2023-03-01T01:19:22;13.03;;;7.80;;
10295;SDS011;5193;51.032;6.356;2023-03-01T01:21:48;13.33;;;7.87;;
10295;SDS011;5193;51.032;6.356;2023-03-01T01:24:14;12.53;;;7.80;;
10295;SDS011;5193;51.032;6.356;2023-03-01T01:26:40;11.77;;;7.63;;
10295;SDS011;5193;51.032;6.356;2023-03-01T01:29:07;13.00;;;8.03;;
10295;SDS011;5193;51.032;6.356;2023-03-01T01:31:33;12.03;;;7.80;;
10295;SDS011;5193;51.032;6.356;2023-03-01T01:34:01;11.90;;;7.67;;
10295;SDS011;5193;51.032;6.356;2023-03-01T01:36:28;11.67;;;7.97;;
10295;SDS011;5193;51.032;6.356;2023-03-01T01:38:54;10.93;;;7.00;;
10295;SDS011;5193;51.032;6.356;2023-03-01T01:41:21;12.77;;;8.30;;
10295;SDS011;5193;51.032;6.356;2023-03-01T01:43:49;15.33;;;8.17;;
10295;SDS011;5193;51.032;6.356;2023-03-01T01:46:44;15.37;;;8.03;;
10295;SDS011;5193;51.032;6.356;2023-03-01T01:54:31;13.40;;;8.00;;
10295;SDS011;5193;51.032;6.356;2023-03-01T01:57:11;14.37;;;8.27;;
10295;SDS011;5193;51.032;6.356;2023-03-01T01:59:44;13.20;;;8.07;;
10295;SDS011;5193;51.032;6.356;2023-03-01T02:02:13;11.17;;;8.23;;
10295;SDS011;5193;51.032;6.356;2023-03-01T02:04:39;11.97;;;7.67;;
10295;SDS011;5193;51.032;6.356;2023-03-01T02:07:16;20.50;;;8.17;;
10295;SDS011;5193;51.032;6.356;2023-03-01T02:09:45;14.27;;;9.00;;
10295;SDS011;5193;51.032;6.356;2023-03-01T02:12:14;21.03;;;9.17;;
10295;SDS011;5193;51.032;6.356;2023-03-01T02:14:42;13.43;;;8.13;;
10295;SDS011;5193;51.032;6.356;2023-03-01T02:17:08;13.50;;;7.67;;
10295;SDS011;5193;51.032;6.356;2023-03-01T02:22:25;18.43;;;8.33;;
10295;SDS011;5193;51.032;6.356;2023-03-01T02:27:58;14.20;;;9.47;;
10295;SDS011;5193;51.032;6.356;2023-03-01T02:30:40;15.07;;;8.40;;
10295;SDS011;5193;51.032;6.356;2023-03-01T02:33:27;13.30;;;8.53;;
10295;SDS011;5193;51.032;6.356;2023-03-01T02:35:57;14.67;;;8.63;;
10295;SDS011;5193;51.032;6.356;2023-03-01T02:38:25;17.23;;;8.90;;
10295;SDS011;5193;51.032;6.356;2023-03-01T02:40:51;13.23;;;8.93;;
10295;SDS011;5193;51.032;6.356;2023-03-01T02:43:19;14.17;;;8.70;;
10295;SDS011;5193;51.032;6.356;2023-03-01T02:45:49;11.67;;;8.40;;
10295;SDS011;5193;51.032;6.356;2023-03-01T02:48:15;19.33;;;8.67;;
10295;SDS011;5193;51.032;6.356;2023-03-01T02:53:28;14.87;;;8.70;;
10295;SDS011;5193;51.032;6.356;2023-03-01T02:56:14;12.40;;;8.77;;
10295;SDS011;5193;51.032;6.356;2023-03-01T02:58:41;14.77;;;9.43;;
10295;SDS011;5193;51.032;6.356;2023-03-01T03:01:10;18.23;;;9.57;;
10295;SDS011;5193;51.032;6.356;2023-03-01T03:03:35;15.40;;;9.67;;
10295;SDS011;5193;51.032;6.356;2023-03-01T03:06:01;19.20;;;9.60;;
10295;SDS011;5193;51.032;6.356;2023-03-01T03:08:26;17.97;;;9.57;;
10295;SDS011;5193;51.032;6.356;2023-03-01T03:10:52;18.13;;;9.33;;
10295;SDS011;5193;51.032;6.356;2023-03-01T03:13:17;13.53;;;9.40;;
10295;SDS011;5193;51.032;6.356;2023-03-01T03:15:44;14.10;;;9.10;;
10295;SDS011;5193;51.032;6.356;2023-03-01T03:18:10;15.97;;;9.13;;
10295;SDS011;5193;51.032;6.356;2023-03-01T03:20:40;13.43;;;9.07;;
10295;SDS011;5193;51.032;6.356;2023-03-01T03:23:06;20.50;;;9.60;;
10295;SDS011;5193;51.032;6.356;2023-03-01T03:25:32;17.53;;;9.33;;
10295;SDS011;5193;51.032;6.356;2023-03-01T03:28:02;15.53;;;8.93;;
10295;SDS011;5193;51.032;6.356;2023-03-01T03:30:34;15.40;;;9.80;;
10295;SDS011;5193;51.032;6.356;2023-03-01T03:33:03;14.57;;;9.47;;
10295;SDS011;5193;51.032;6.356;2023-03-01T03:35:32;19.30;;;9.33;;
10295;SDS011;5193;51.032;6.356;2023-03-01T03:38:00;18.47;;;8.57;;
10295;SDS011;5193;51.032;6.356;2023-03-01T03:40:38;16.30;;;9.23;;
10295;SDS011;5193;51.032;6.356;2023-03-01T03:43:23;15.87;;;9.80;;
10295;SDS011;5193;51.032;6.356;2023-03-01T03:45:49;16.63;;;9.57;;
10295;SDS011;5193;51.032;6.356;2023-03-01T03:48:15;25.93;;;9.53;;
10295;SDS011;5193;51.032;6.356;2023-03-01T03:50:46;17.03;;;9.70;;
10295;SDS011;5193;51.032;6.356;2023-03-01T03:53:14;16.07;;;10.00;;
10295;SDS011;5193;51.032;6.356;2023-03-01T03:55:39;19.60;;;10.10;;
10295;SDS011;5193;51.032;6.356;2023-03-01T03:58:08;15.40;;;9.63;;
10295;SDS011;5193;51.032;6.356;2023-03-01T04:00:36;20.13;;;10.60;;
10295;SDS011;5193;51.032;6.356;2023-03-01T04:03:06;15.00;;;10.17;;
10295;SDS011;5193;51.032;6.356;2023-03-01T04:05:32;16.60;;;10.43;;
10295;SDS011;5193;51.032;6.356;2023-03-01T04:07:58;17.57;;;9.43;;
10295;SDS011;5193;51.032;6.356;2023-03-01T04:10:28;15.53;;;10.70;;
10295;SDS011;5193;51.032;6.356;2023-03-01T04:12:55;14.07;;;9.53;;
10295;SDS011;5193;51.032;6.356;2023-03-01T04:15:22;16.67;;;10.07;;
10295;SDS011;5193;51.032;6.356;2023-03-01T04:17:49;17.20;;;10.23;;
10295;SDS011;5193;51.032;6.356;2023-03-01T04:20:18;15.60;;;9.67;;
10295;SDS011;5193;51.032;6.356;2023-03-01T04:22:52;14.63;;;9.80;;
10295;SDS011;5193;51.032;6.356;2023-03-01T04:25:25;15.63;;;10.60;;
10295;SDS011;5193;51.032;6.356;2023-03-01T04:27:51;15.73;;;9.23;;
10295;SDS011;5193;51.032;6.356;2023-03-01T04:30:17;17.00;;;9.90;;
10295;SDS011;5193;51.032;6.356;2023-03-01T04:32:42;13.97;;;10.10;;
10295;SDS011;5193;51.032;6.356;2023-03-01T04:35:08;14.97;;;9.83;;
10295;SDS011;5193;51.032;6.356;2023-03-01T04:37:34;17.33;;;10.03;;
10295;SDS011;5193;51.032;6.356;2023-03-01T04:40:00;12.40;;;9.57;;
10295;SDS011;5193;51.032;6.356;2023-03-01T04:42:37;14.83;;;9.70;;
10295;SDS011;5193;51.032;6.356;2023-03-01T04:45:02;22.77;;;10.33;;
10295;SDS011;5193;51.032;6.356;2023-03-01T04:47:37;15.47;;;9.50;;
10295;SDS011;5193;51.032;6.356;2023-03-01T04:50:07;14.23;;;10.10;;
10295;SDS011;5193;51.032;6.356;2023-03-01T04:52:34;16.57;;;10.43;;
10295;SDS011;5193;51.032;6.356;2023-03-01T04:55:00;16.33;;;10.60;;
10295;SDS011;5193;51.032;6.356;2023-03-01T04:57:26;15.93;;;9.93;;
10295;SDS011;5193;51.032;6.356;2023-03-01T04:59:51;14.87;;;9.83;;
10295;SDS011;5193;51.032;6.356;2023-03-01T05:02:17;15.13;;;10.50;;
10295;SDS011;5193;51.032;6.356;2023-03-01T05:04:42;15.23;;;9.87;;
10295;SDS011;5193;51.032;6.356;2023-03-01T05:07:08;15.03;;;9.17;;
10295;SDS011;5193;51.032;6.356;2023-03-01T05:09:34;15.63;;;10.00;;
10295;SDS011;5193;51.032;6.356;2023-03-01T05:11:59;15.30;;;9.57;;
10295;SDS011;5193;51.032;6.356;2023-03-01T05:14:25;16.37;;;10.07;;
10295;SDS011;5193;51.032;6.356;2023-03-01T05:16:50;17.13;;;9.57;;
10295;SDS011;5193;51.032;6.356;2023-03-01T05:19:16;13.80;;;10.13;;
10295;SDS011;5193;51.032;6.356;2023-03-01T05:21:47;19.10;;;10.27;;
10295;SDS011;5193;51.032;6.356;2023-03-01T05:24:29;14.23;;;9.63;;
10295;SDS011;5193;51.032;6.356;2023-03-01T05:26:56;18.10;;;9.60;;
10295;SDS011;5193;51.032;6.356;2023-03-01T05:29:22;13.30;;;8.93;;
10295;SDS011;5193;51.032;6.356;2023-03-01T05:31:52;12.70;;;8.97;;
10295;SDS011;5193;51.032;6.356;2023-03-01T05:34:26;16.87;;;9.93;;
10295;SDS011;5193;51.032;6.356;2023-03-01T05:36:53;24.90;;;11.53;;
10295;SDS011;5193;51.032;6.356;2023-03-01T05:39:19;17.37;;;11.00;;
10295;SDS011;5193;51.032;6.356;2023-03-01T05:41:51;20.33;;;11.60;;
10295;SDS011;5193;51.032;6.356;2023-03-01T05:44:18;25.90;;;10.33;;
10295;SDS011;5193;51.032;6.356;2023-03-01T05:46:44;18.43;;;9.93;;
10295;SDS011;5193;51.032;6.356;2023-03-01T05:49:09;17.47;;;9.97;;
10295;SDS011;5193;51.032;6.356;2023-03-01T05:51:35;19.13;;;10.40;;
10295;SDS011;5193;51.032;6.356;2023-03-01T05:54:01;18.43;;;10.60;;
10295;SDS011;5193;51.032;6.356;2023-03-01T05:56:27;17.83;;;10.80;;
10295;SDS011;5193;51.032;6.356;2023-03-01T05:58:52;17.77;;;10.67;;
10295;SDS011;5193;51.032;6.356;2023-03-01T06:01:18;19.60;;;11.03;;
10295;SDS011;5193;51.032;6.356;2023-03-01T06:03:43;21.23;;;10.63;;
10295;SDS011;5193;51.032;6.356;2023-03-01T06:06:09;19.07;;;10.87;;
10295;SDS011;5193;51.032;6.356;2023-03-01T06:08:34;17.60;;;10.77;;
10295;SDS011;5193;51.032;6.356;2023-03-01T06:11:00;18.03;;;11.83;;
10295;SDS011;5193;51.032;6.356;2023-03-01T06:13:26;17.23;;;10.70;;
10295;SDS011;5193;51.032;6.356;2023-03-01T06:15:51;16.83;;;9.87;;
10295;SDS011;5193;51.032;6.356;2023-03-01T06:18:17;20.77;;;11.57;;
10295;SDS011;5193;51.032;6.356;2023-03-01T06:20:42;18.00;;;11.03;;
10295;SDS011;5193;51.032;6.356;2023-03-01T06:23:08;20.10;;;11.07;;
10295;SDS011;5193;51.032;6.356;2023-03-01T06:25:34;19.70;;;10.73;;
10295;SDS011;5193;51.032;6.356;2023-03-01T06:27:59;18.07;;;11.17;;
10295;SDS011;5193;51.032;6.356;2023-03-01T06:30:25;20.77;;;11.63;;
10295;SDS011;5193;51.032;6.356;2023-03-01T06:32:51;22.03;;;11.30;;
10295;SDS011;5193;51.032;6.356;2023-03-01T06:35:17;23.43;;;11.60;;
10295;SDS011;5193;51.032;6.356;2023-03-01T06:37:44;21.63;;;11.37;;
10295;SDS011;5193;51.032;6.356;2023-03-01T06:40:11;19.63;;;11.77;;
10295;SDS011;5193;51.032;6.356;2023-03-01T06:42:38;20.73;;;11.63;;
10295;SDS011;5193;51.032;6.356;2023-03-01T06:45:06;17.53;;;10.97;;
10295;SDS011;5193;51.032;6.356;2023-03-01T06:47:33;21.97;;;11.87;;
10295;SDS011;5193;51.032;6.356;2023-03-01T06:49:59;24.00;;;11.83;;
10295;SDS011;5193;51.032;6.356;2023-03-01T06:52:25;21.57;;;12.07;;
10295;SDS011;5193;51.032;6.356;2023-03-01T06:54:51;24.50;;;12.93;;
10295;SDS011;5193;51.032;6.356;2023-03-01T06:57:16;21.27;;;12.90;;
10295;SDS011;5193;51.032;6.356;2023-03-01T06:59:42;21.67;;;12.73;;
10295;SDS011;5193;51.032;6.356;2023-03-01T07:02:11;20.23;;;12.00;;
10295;SDS011;5193;51.032;6.356;2023-03-01T07:04:38;19.90;;;12.73;;
10295;SDS011;5193;51.032;6.356;2023-03-01T07:07:04;25.20;;;13.10;;
10295;SDS011;5193;51.032;6.356;2023-03-01T07:09:29;19.60;;;12.17;;
10295;SDS011;5193;51.032;6.356;2023-03-01T07:11:55;19.20;;;11.70;;
10295;SDS011;5193;51.032;6.356;2023-03-01T07:14:21;18.90;;;12.23;;
10295;SDS011;5193;51.032;6.356;2023-03-01T07:16:49;25.27;;;12.63;;
10295;SDS011;5193;51.032;6.356;2023-03-01T07:19:15;19.33;;;12.67;;
10295;SDS011;5193;51.032;6.356;2023-03-01T07:21:40;23.47;;;13.10;;
10295;SDS011;5193;51.032;6.356;2023-03-01T07:24:06;20.40;;;13.60;;
10295;SDS011;5193;51.032;6.356;2023-03-01T07:26:32;25.23;;;13.07;;
10295;SDS011;5193;51.032;6.356;2023-03-01T07:28:59;25.30;;;13.60;;
10295;SDS011;5193;51.032;6.356;2023-03-01T07:31:25;26.43;;;13.50;;
10295;SDS011;5193;51.032;6.356;2023-03-01T07:33:53;23.00;;;13.23;;
10295;SDS011;5193;51.032;6.356;2023-03-01T07:36:19;26.60;;;13.83;;
10295;SDS011;5193;51.032;6.356;2023-03-01T07:38:45;22.57;;;13.00;;
10295;SDS011;5193;51.032;6.356;2023-03-01T07:41:10;21.10;;;13.70;;
10295;SDS011;5193;51.032;6.356;2023-03-01T07:43:36;20.53;;;13.40;;
10295;SDS011;5193;51.032;6.356;2023-03-01T07:46:02;22.67;;;13.40;;
10295;SDS011;5193;51.032;6.356;2023-03-01T07:48:28;22.27;;;13.80;;
10295;SDS011;5193;51.032;6.356;2023-03-01T07:50:57;24.77;;;14.57;;
10295;SDS011;5193;51.032;6.356;2023-03-01T07:53:24;19.97;;;13.80;;
10295;SDS011;5193;51.032;6.356;2023-03-01T07:55:50;25.90;;;13.53;;
10295;SDS011;5193;51.032;6.356;2023-03-01T07:58:29;24.60;;;14.03;;
10295;SDS011;5193;51.032;6.356;2023-03-01T08:00:54;27.67;;;14.00;;
10295;SDS011;5193;51.032;6.356;2023-03-01T08:03:20;24.00;;;14.00;;
10295;SDS011;5193;51.032;6.356;2023-03-01T08:05:45;23.80;;;14.30;;
10295;SDS011;5193;51.032;6.356;2023-03-01T08:08:11;25.80;;;13.30;;
10295;SDS011;5193;51.032;6.356;2023-03-01T08:10:36;21.60;;;13.13;;
10295;SDS011;5193;51.032;6.356;2023-03-01T08:13:02;23.80;;;14.70;;
10295;SDS011;5193;51.032;6.356;2023-03-01T08:15:27;19.80;;;11.57;;
10295;SDS011;5193;51.032;6.356;2023-03-01T08:17:53;22.40;;;14.43;;
10295;SDS011;5193;51.032;6.356;2023-03-01T08:20:18;26.90;;;12.27;;
10295;SDS011;5193;51.032;6.356;2023-03-01T08:22:44;20.80;;;14.10;;
10295;SDS011;5193;51.032;6.356;2023-03-01T08:25:10;25.37;;;14.57;;
10295;SDS011;5193;51.032;6.356;2023-03-01T08:27:35;22.97;;;13.70;;
10295;SDS011;5193;51.032;6.356;2023-03-01T08:30:01;20.23;;;13.43;;
10295;SDS011;5193;51.032;6.356;2023-03-01T08:32:26;22.73;;;15.83;;
10295;SDS011;5193;51.032;6.356;2023-03-01T08:34:52;24.23;;;15.13;;
10295;SDS011;5193;51.032;6.356;2023-03-01T08:37:17;22.57;;;13.07;;
10295;SDS011;5193;51.032;6.356;2023-03-01T08:39:43;25.73;;;14.60;;
10295;SDS011;5193;51.032;6.356;2023-03-01T08:42:08;23.40;;;13.37;;
10295;SDS011;5193;51.032;6.356;2023-03-01T08:44:34;22.97;;;13.20;;
10295;SDS011;5193;51.032;6.356;2023-03-01T08:47:00;22.30;;;14.43;;
10295;SDS011;5193;51.032;6.356;2023-03-01T08:49:27;28.63;;;15.00;;
10295;SDS011;5193;51.032;6.356;2023-03-01T08:51:53;22.17;;;12.37;;
10295;SDS011;5193;51.032;6.356;2023-03-01T08:54:20;17.97;;;11.90;;
10295;SDS011;5193;51.032;6.356;2023-03-01T08:56:46;18.60;;;12.43;;
10295;SDS011;5193;51.032;6.356;2023-03-01T08:59:13;24.13;;;13.70;;
10295;SDS011;5193;51.032;6.356;2023-03-01T09:01:40;24.20;;;13.17;;
10295;SDS011;5193;51.032;6.356;2023-03-01T09:04:08;20.50;;;13.20;;
10295;SDS011;5193;51.032;6.356;2023-03-01T09:06:34;16.97;;;11.40;;
10295;SDS011;5193;51.032;6.356;2023-03-01T09:09:00;24.53;;;13.57;;
10295;SDS011;5193;51.032;6.356;2023-03-01T09:11:27;18.03;;;12.33;;
10295;SDS011;5193;51.032;6.356;2023-03-01T09:13:53;19.33;;;12.87;;
10295;SDS011;5193;51.032;6.356;2023-03-01T09:16:20;20.90;;;12.60;;
10295;SDS011;5193;51.032;6.356;2023-03-01T09:18:50;22.50;;;13.03;;
10295;SDS011;5193;51.032;6.356;2023-03-01T09:21:19;22.40;;;12.63;;
10295;SDS011;5193;51.032;6.356;2023-03-01T09:23:48;19.97;;;11.43;;
10295;SDS011;5193;51.032;6.356;2023-03-01T09:26:18;17.03;;;12.17;;
10295;SDS011;5193;51.032;6.356;2023-03-01T09:28:46;21.50;;;13.13;;
10295;SDS011;5193;51.032;6.356;2023-03-01T09:31:13;19.00;;;11.20;;
10295;SDS011;5193;51.032;6.356;2023-03-01T09:33:40;19.03;;;11.33;;
10295;SDS011;5193;51.032;6.356;2023-03-01T09:36:09;20.80;;;12.67;;
10295;SDS011;5193;51.032;6.356;2023-03-01T09:38:39;18.73;;;11.90;;
10295;SDS011;5193;51.032;6.356;2023-03-01T09:41:18;22.63;;;13.60;;
10295;SDS011;5193;51.032;6.356;2023-03-01T09:44:23;21.17;;;11.57;;
10295;SDS011;5193;51.032;6.356;2023-03-01T09:46:52;24.63;;;13.23;;
10295;SDS011;5193;51.032;6.356;2023-03-01T09:49:18;17.00;;;11.57;;
10295;SDS011;5193;51.032;6.356;2023-03-01T09:51:54;18.47;;;12.57;;
10295;SDS011;5193;51.032;6.356;2023-03-01T09:54:26;22.10;;;12.63;;
10295;SDS011;5193;51.032;6.356;2023-03-01T09:57:13;20.43;;;12.57;;
10295;SDS011;5193;51.032;6.356;2023-03-01T10:02:16;16.10;;;11.60;;
10295;SDS011;5193;51.032;6.356;2023-03-01T10:04:52;18.53;;;13.17;;
10295;SDS011;5193;51.032;6.356;2023-03-01T10:07:27;21.33;;;12.63;;
10295;SDS011;5193;51.032;6.356;2023-03-01T10:10:07;23.43;;;11.50;;
10295;SDS011;5193;51.032;6.356;2023-03-01T10:12:40;22.73;;;11.87;;
10295;SDS011;5193;51.032;6.356;2023-03-01T10:15:29;25.27;;;12.90;;
10295;SDS011;5193;51.032;6.356;2023-03-01T10:18:09;18.60;;;12.07;;
10295;SDS011;5193;51.032;6.356;2023-03-01T10:20:54;17.70;;;11.77;;
10295;SDS011;5193;51.032;6.356;2023-03-01T10:23:24;17.73;;;11.73;;
10295;SDS011;5193;51.032;6.356;2023-03-01T10:31:22;16.57;;;11.67;;
10295;SDS011;5193;51.032;6.356;2023-03-01T10:33:54;17.17;;;11.03;;
10295;SDS011;5193;51.032;6.356;2023-03-01T10:36:22;20.50;;;13.10;;
10295;SDS011;5193;51.032;6.356;2023-03-01T10:38:50;22.77;;;11.50;;
10295;SDS011;5193;51.032;6.356;2023-03-01T10:41:19;18.20;;;11.83;;
10295;SDS011;5193;51.032;6.356;2023-03-01T10:43:49;19.30;;;11.17;;
10295;SDS011;5193;51.032;6.356;2023-03-01T10:46:30;14.93;;;10.87;;
10295;SDS011;5193;51.032;6.356;2023-03-01T10:49:05;18.40;;;11.27;;
10295;SDS011;5193;51.032;6.356;2023-03-01T10:51:43;19.17;;;11.73;;
10295;SDS011;5193;51.032;6.356;2023-03-01T10:54:15;18.97;;;11.07;;
10295;SDS011;5193;51.032;6.356;2023-03-01T10:57:03;17.87;;;11.67;;
10295;SDS011;5193;51.032;6.356;2023-03-01T10:59:31;15.57;;;10.70;;
10295;SDS011;5193;51.032;6.356;2023-03-01T11:12:23;15.27;;;10.73;;
10295;SDS011;5193;51.032;6.356;2023-03-01T11:14:55;14.17;;;9.83;;
10295;SDS011;5193;51.032;6.356;2023-03-01T11:17:23;18.37;;;9.93;;
10295;SDS011;5193;51.032;6.356;2023-03-01T11:20:00;16.77;;;10.53;;
10295;SDS011;5193;51.032;6.356;2023-03-01T11:22:36;15.17;;;10.40;;
10295;SDS011;5193;51.032;6.356;2023-03-01T11:25:19;15.57;;;10.33;;
10295;SDS011;5193;51.032;6.356;2023-03-01T11:27:49;15.13;;;9.87;;
10295;SDS011;5193;51.032;6.356;2023-03-01T11:30:19;16.80;;;11.40;;
10295;SDS011;5193;51.032;6.356;2023-03-01T11:35:32;15.40;;;9.33;;
10295;SDS011;5193;51.032;6.356;2023-03-01T11:38:11;16.33;;;10.83;;
10295;SDS011;5193;51.032;6.356;2023-03-01T11:40:49;19.23;;;9.40;;
10295;SDS011;5193;51.032;6.356;2023-03-01T11:43:32;16.33;;;10.13;;
10295;SDS011;5193;51.032;6.356;2023-03-01T11:48:58;12.23;;;9.47;;
10295;SDS011;5193;51.032;6.356;2023-03-01T11:54:47;13.00;;;9.53;;
10295;SDS011;5193;51.032;6.356;2023-03-01T12:12:11;10.23;;;8.50;;
10295;SDS011;5193;51.032;6.356;2023-03-01T12:14:51;11.53;;;8.43;;
10295;SDS011;5193;51.032;6.356;2023-03-01T12:20:14;14.40;;;8.30;;
10295;SDS011;5193;51.032;6.356;2023-03-01T12:45:54;12.57;;;8.47;;
10295;SDS011;5193;51.032;6.356;2023-03-01T12:48:33;14.50;;;10.43;;
10295;SDS011;5193;51.032;6.356;2023-03-01T12:51:12;13.90;;;8.40;;
10295;SDS011;5193;51.032;6.356;2023-03-01T12:53:41;13.30;;;8.50;;
10295;SDS011;5193;51.032;6.356;2023-03-01T12:56:12;14.13;;;8.50;;
10295;SDS011;5193;51.032;6.356;2023-03-01T13:01:28;11.70;;;8.67;;
10295;SDS011;5193;51.032;6.356;2023-03-01T13:06:46;12.33;;;8.57;;
10295;SDS011;5193;51.032;6.356;2023-03-01T13:15:25;13.50;;;9.37;;
10295;SDS011;5193;51.032;6.356;2023-03-01T13:17:53;11.40;;;7.80;;
10295;SDS011;5193;51.032;6.356;2023-03-01T13:20:25;11.33;;;9.03;;
10295;SDS011;5193;51.032;6.356;2023-03-01T13:23:24;11.63;;;8.50;;
10295;SDS011;5193;51.032;6.356;2023-03-01T13:26:09;10.20;;;8.57;;
10295;SDS011;5193;51.032;6.356;2023-03-01T13:33:46;11.77;;;7.40;;
10295;SDS011;5193;51.032;6.356;2023-03-01T13:49:52;10.83;;;7.07;;
10295;SDS011;5193;51.032;6.356;2023-03-01T13:52:37;12.00;;;6.50;;
10295;SDS011;5193;51.032;6.356;2023-03-01T13:55:06;10.20;;;7.30;;
10295;SDS011;5193;51.032;6.356;2023-03-01T13:57:39;9.27;;;7.00;;
10295;SDS011;5193;51.032;6.356;2023-03-01T14:00:24;9.10;;;6.30;;
10295;SDS011;5193;51.032;6.356;2023-03-01T14:03:03;7.37;;;6.37;;
10295;SDS011;5193;51.032;6.356;2023-03-01T14:05:29;9.90;;;6.03;;
10295;SDS011;5193;51.032;6.356;2023-03-01T14:07:56;7.50;;;5.93;;
10295;SDS011;5193;51.032;6.356;2023-03-01T14:10:21;9.30;;;7.27;;
10295;SDS011;5193;51.032;6.356;2023-03-01T14:12:59;17.93;;;8.03;;
10295;SDS011;5193;51.032;6.356;2023-03-01T14:15:50;9.67;;;6.67;;
10295;SDS011;5193;51.032;6.356;2023-03-01T14:21:27;20.20;;;12.10;;
10295;SDS011;5193;51.032;6.356;2023-03-01T14:23:53;20.10;;;10.80;;
10295;SDS011;5193;51.032;6.356;2023-03-01T14:26:20;13.40;;;6.43;;
10295;SDS011;5193;51.032;6.356;2023-03-01T14:28:47;9.87;;;7.27;;
10295;SDS011;5193;51.032;6.356;2023-03-01T14:31:35;13.23;;;7.63;;
10295;SDS011;5193;51.032;6.356;2023-03-01T14:34:02;16.13;;;10.43;;
10295;SDS011;5193;51.032;6.356;2023-03-01T14:36:33;14.20;;;9.77;;
10295;SDS011;5193;51.032;6.356;2023-03-01T14:38:59;11.03;;;8.33;;
10295;SDS011;5193;51.032;6.356;2023-03-01T14:41:30;9.57;;;6.50;;
10295;SDS011;5193;51.032;6.356;2023-03-01T14:43:59;12.40;;;6.80;;
10295;SDS011;5193;51.032;6.356;2023-03-01T14:46:35;7.57;;;5.77;;
10295;SDS011;5193;51.032;6.356;2023-03-01T14:49:04;12.63;;;6.20;;
10295;SDS011;5193;51.032;6.356;2023-03-01T14:52:04;9.00;;;5.87;;
10295;SDS011;5193;51.032;6.356;2023-03-01T14:54:51;10.03;;;6.13;;
10295;SDS011;5193;51.032;6.356;2023-03-01T14:59:51;8.63;;;5.70;;
10295;SDS011;5193;51.032;6.356;2023-03-01T15:02:23;13.23;;;6.73;;
10295;SDS011;5193;51.032;6.356;2023-03-01T15:05:01;8.60;;;5.80;;
10295;SDS011;5193;51.032;6.356;2023-03-01T15:07:34;9.27;;;6.17;;
10295;SDS011;5193;51.032;6.356;2023-03-01T15:10:04;10.73;;;6.30;;
10295;SDS011;5193;51.032;6.356;2023-03-01T15:12:34;9.93;;;6.00;;
10295;SDS011;5193;51.032;6.356;2023-03-01T15:15:01;9.07;;;6.03;;
10295;SDS011;5193;51.032;6.356;2023-03-01T15:18:06;9.50;;;6.10;;
10295;SDS011;5193;51.032;6.356;2023-03-01T15:20:49;10.83;;;6.27;;
10295;SDS011;5193;51.032;6.356;2023-03-01T15:23:36;9.87;;;6.40;;
10295;SDS011;5193;51.032;6.356;2023-03-01T15:26:02;8.17;;;6.13;;
10295;SDS011;5193;51.032;6.356;2023-03-01T15:28:34;10.63;;;6.13;;
10295;SDS011;5193;51.032;6.356;2023-03-01T15:31:19;10.97;;;6.43;;
10295;SDS011;5193;51.032;6.356;2023-03-01T15:33:47;14.77;;;6.33;;
10295;SDS011;5193;51.032;6.356;2023-03-01T15:45:06;15.20;;;7.03;;
10295;SDS011;5193;51.032;6.356;2023-03-01T15:48:05;19.53;;;6.80;;
10295;SDS011;5193;51.032;6.356;2023-03-01T15:50:53;13.73;;;5.67;;
10295;SDS011;5193;51.032;6.356;2023-03-01T15:53:23;9.73;;;6.37;;
10295;SDS011;5193;51.032;6.356;2023-03-01T15:55:49;8.37;;;6.07;;
10295;SDS011;5193;51.032;6.356;2023-03-01T15:58:19;13.20;;;6.47;;
10295;SDS011;5193;51.032;6.356;2023-03-01T16:00:47;9.43;;;6.67;;
10295;SDS011;5193;51.032;6.356;2023-03-01T16:03:15;9.30;;;6.47;;
10295;SDS011;5193;51.032;6.356;2023-03-01T16:05:46;13.10;;;7.03;;
10295;SDS011;5193;51.032;6.356;2023-03-01T16:08:16;11.53;;;6.50;;
10295;SDS011;5193;51.032;6.356;2023-03-01T16:10:42;9.10;;;6.43;;
10295;SDS011;5193;51.032;6.356;2023-03-01T16:13:11;10.43;;;6.80;;
10295;SDS011;5193;51.032;6.356;2023-03-01T16:15:37;10.00;;;6.33;;
10295;SDS011;5193;51.032;6.356;2023-03-01T16:18:04;12.60;;;6.87;;
10295;SDS011;5193;51.032;6.356;2023-03-01T16:20:31;10.47;;;6.17;;
10295;SDS011;5193;51.032;6.356;2023-03-01T16:23:01;10.13;;;6.37;;
10295;SDS011;5193;51.032;6.356;2023-03-01T16:25:28;8.27;;;6.33;;
10295;SDS011;5193;51.032;6.356;2023-03-01T16:27:54;10.37;;;6.47;;
10295;SDS011;5193;51.032;6.356;2023-03-01T16:30:23;8.13;;;5.90;;
10295;SDS011;5193;51.032;6.356;2023-03-01T16:32:49;13.87;;;6.83;;
10295;SDS011;5193;51.032;6.356;2023-03-01T16:35:17;11.20;;;6.53;;
10295;SDS011;5193;51.032;6.356;2023-03-01T16:37:44;10.80;;;6.30;;
10295;SDS011;5193;51.032;6.356;2023-03-01T16:40:31;11.57;;;6.67;;
10295;SDS011;5193;51.032;6.356;2023-03-01T16:42:56;14.90;;;6.50;;
10295;SDS011;5193;51.032;6.356;2023-03-01T16:45:26;15.03;;;6.57;;
10295;SDS011;5193;51.032;6.356;2023-03-01T16:47:53;8.53;;;6.13;;
10295;SDS011;5193;51.032;6.356;2023-03-01T16:50:19;7.57;;;5.17;;
10295;SDS011;5193;51.032;6.356;2023-03-01T16:52:44;9.70;;;5.80;;
10295;SDS011;5193;51.032;6.356;2023-03-01T16:55:10;10.40;;;6.23;;
10295;SDS011;5193;51.032;6.356;2023-03-01T16:57:36;14.47;;;6.10;;
10295;SDS011;5193;51.032;6.356;2023-03-01T17:00:03;12.50;;;6.37;;
10295;SDS011;5193;51.032;6.356;2023-03-01T17:05:00;13.73;;;6.17;;
10295;SDS011;5193;51.032;6.356;2023-03-01T17:07:27;14.90;;;7.53;;
10295;SDS011;5193;51.032;6.356;2023-03-01T17:09:53;9.70;;;5.87;;